sensor_id;sensor_type;location;lat;lon;timestamp;P1;durP1;ratioP1;P2;durP2;ratioP2
3757;SDS011;1894;51.038;13.692;2023-09-19T00:01:52;2.73;;;2.20;;
3757;SDS011;1894;51.038;13.692;2023-09-19T00:04:19;4.30;;;1.97;;
3757;SDS011;1894;51.038;13.692;2023-09-19T00:06:50;5.40;;;1.70;;
3757;SDS011;1894;51.038;13.692;2023-09-19T00:09:17;4.63;;;2.00;;
3757;SDS011;1894;51.038;13.692;2023-09-19T00:11:44;2.87;;;1.63;;
3757;SDS011;1894;51.038;13.692;2023-09-19T00:14:13;6.30;;;2.30;;
3757;SDS011;1894;51.038;13.692;2023-09-19T00:16:41;2.03;;;1.60;;
3757;SDS011;1894;51.038;13.692;2023-09-19T00:19:08;2.70;;;1.70;;
3757;SDS011;1894;51.038;13.692;2023-09-19T00:21:36;2.10;;;1.60;;
3757;SDS011;1894;51.038;13.692;2023-09-19T00:24:04;6.10;;;1.73;;
3757;SDS011;1894;51.038;13.692;2023-09-19T00:26:32;3.37;;;2.07;;
3757;SDS011;1894;51.038;13.692;2023-09-19T00:29:00;4.00;;;1.93;;
3757;SDS011;1894;51.038;13.692;2023-09-19T00:31:34;2.67;;;1.90;;
3757;SDS011;1894;51.038;13.692;2023-09-19T00:34:04;9.87;;;2.33;;
3757;SDS011;1894;51.038;13.692;2023-09-19T00:36:32;2.67;;;2.23;;
3757;SDS011;1894;51.038;13.692;2023-09-19T00:39:00;5.27;;;2.20;;
3757;SDS011;1894;51.038;13.692;2023-09-19T00:41:27;5.23;;;2.13;;
3757;SDS011;1894;51.038;13.692;2023-09-19T00:43:56;6.67;;;3.03;;
3757;SDS011;1894;51.038;13.692;2023-09-19T00:46:24;4.00;;;2.80;;
3757;SDS011;1894;51.038;13.692;2023-09-19T00:48:52;4.03;;;2.37;;
3757;SDS011;1894;51.038;13.692;2023-09-19T00:51:20;6.20;;;2.63;;
3757;SDS011;1894;51.038;13.692;2023-09-19T00:53:48;5.27;;;2.53;;
3757;SDS011;1894;51.038;13.692;2023-09-19T00:56:16;5.73;;;2.60;;
3757;SDS011;1894;51.038;13.692;2023-09-19T00:58:46;5.37;;;3.80;;
3757;SDS011;1894;51.038;13.692;2023-09-19T01:01:14;4.13;;;3.53;;
3757;SDS011;1894;51.038;13.692;2023-09-19T01:03:42;7.30;;;2.73;;
3757;SDS011;1894;51.038;13.692;2023-09-19T01:06:12;8.60;;;2.53;;
3757;SDS011;1894;51.038;13.692;2023-09-19T01:08:39;5.97;;;3.07;;
3757;SDS011;1894;51.038;13.692;2023-09-19T01:11:20;5.17;;;3.63;;
3757;SDS011;1894;51.038;13.692;2023-09-19T01:14:06;4.27;;;2.83;;
3757;SDS011;1894;51.038;13.692;2023-09-19T01:22:30;3.97;;;3.10;;
3757;SDS011;1894;51.038;13.692;2023-09-19T01:28:14;4.70;;;2.93;;
3757;SDS011;1894;51.038;13.692;2023-09-19T01:31:04;6.70;;;2.87;;
3757;SDS011;1894;51.038;13.692;2023-09-19T01:33:56;9.43;;;2.93;;
3757;SDS011;1894;51.038;13.692;2023-09-19T01:36:33;7.20;;;2.70;;
3757;SDS011;1894;51.038;13.692;2023-09-19T01:39:04;8.30;;;3.70;;
3757;SDS011;1894;51.038;13.692;2023-09-19T01:44:24;5.23;;;3.20;;
3757;SDS011;1894;51.038;13.692;2023-09-19T01:47:21;7.27;;;3.63;;
3757;SDS011;1894;51.038;13.692;2023-09-19T01:53:27;4.60;;;4.10;;
3757;SDS011;1894;51.038;13.692;2023-09-19T01:56:02;13.47;;;5.07;;
3757;SDS011;1894;51.038;13.692;2023-09-19T01:58:44;6.83;;;4.90;;
3757;SDS011;1894;51.038;13.692;2023-09-19T02:01:19;6.77;;;4.67;;
3757;SDS011;1894;51.038;13.692;2023-09-19T02:03:49;8.40;;;5.13;;
3757;SDS011;1894;51.038;13.692;2023-09-19T02:06:18;7.77;;;4.77;;
3757;SDS011;1894;51.038;13.692;2023-09-19T02:08:47;8.50;;;4.90;;
3757;SDS011;1894;51.038;13.692;2023-09-19T02:11:16;4.93;;;4.27;;
3757;SDS011;1894;51.038;13.692;2023-09-19T02:13:44;5.93;;;1.80;;
3757;SDS011;1894;51.038;13.692;2023-09-19T02:16:12;3.27;;;1.43;;
3757;SDS011;1894;51.038;13.692;2023-09-19T02:18:41;5.33;;;1.20;;
3757;SDS011;1894;51.038;13.692;2023-09-19T02:21:08;6.10;;;1.20;;
3757;SDS011;1894;51.038;13.692;2023-09-19T02:23:39;4.03;;;1.33;;
3757;SDS011;1894;51.038;13.692;2023-09-19T02:26:08;7.73;;;1.73;;
3757;SDS011;1894;51.038;13.692;2023-09-19T02:28:35;5.40;;;1.27;;
3757;SDS011;1894;51.038;13.692;2023-09-19T02:31:02;1.40;;;1.03;;
3757;SDS011;1894;51.038;13.692;2023-09-19T02:33:32;3.00;;;1.10;;
3757;SDS011;1894;51.038;13.692;2023-09-19T02:35:59;1.73;;;0.90;;
3757;SDS011;1894;51.038;13.692;2023-09-19T02:38:27;2.73;;;1.00;;
3757;SDS011;1894;51.038;13.692;2023-09-19T02:40:55;1.30;;;0.90;;
3757;SDS011;1894;51.038;13.692;2023-09-19T02:43:23;4.10;;;1.10;;
3757;SDS011;1894;51.038;13.692;2023-09-19T02:45:51;1.77;;;1.10;;
3757;SDS011;1894;51.038;13.692;2023-09-19T02:48:21;4.17;;;0.90;;
3757;SDS011;1894;51.038;13.692;2023-09-19T02:50:49;0.90;;;0.77;;
3757;SDS011;1894;51.038;13.692;2023-09-19T02:53:17;2.17;;;1.40;;
3757;SDS011;1894;51.038;13.692;2023-09-19T02:55:46;1.53;;;1.03;;
3757;SDS011;1894;51.038;13.692;2023-09-19T02:58:15;1.03;;;0.93;;
3757;SDS011;1894;51.038;13.692;2023-09-19T03:00:42;2.30;;;1.00;;
3757;SDS011;1894;51.038;13.692;2023-09-19T03:03:13;3.60;;;0.90;;
3757;SDS011;1894;51.038;13.692;2023-09-19T03:05:43;2.10;;;0.93;;
3757;SDS011;1894;51.038;13.692;2023-09-19T03:08:16;1.93;;;1.00;;
3757;SDS011;1894;51.038;13.692;2023-09-19T03:10:46;3.30;;;1.17;;
3757;SDS011;1894;51.038;13.692;2023-09-19T03:13:17;3.17;;;1.00;;
3757;SDS011;1894;51.038;13.692;2023-09-19T03:15:44;3.00;;;0.80;;
3757;SDS011;1894;51.038;13.692;2023-09-19T03:18:17;1.60;;;1.23;;
3757;SDS011;1894;51.038;13.692;2023-09-19T03:20:52;1.30;;;1.03;;
3757;SDS011;1894;51.038;13.692;2023-09-19T03:23:22;4.80;;;1.00;;
3757;SDS011;1894;51.038;13.692;2023-09-19T03:25:50;3.37;;;1.10;;
3757;SDS011;1894;51.038;13.692;2023-09-19T03:28:19;1.00;;;0.90;;
3757;SDS011;1894;51.038;13.692;2023-09-19T03:31:06;4.57;;;1.17;;
3757;SDS011;1894;51.038;13.692;2023-09-19T03:33:35;1.70;;;1.20;;
3757;SDS011;1894;51.038;13.692;2023-09-19T03:36:04;6.53;;;1.10;;
3757;SDS011;1894;51.038;13.692;2023-09-19T03:38:32;2.43;;;1.03;;
3757;SDS011;1894;51.038;13.692;2023-09-19T03:41:01;2.80;;;1.20;;
3757;SDS011;1894;51.038;13.692;2023-09-19T03:43:31;1.00;;;0.90;;
3757;SDS011;1894;51.038;13.692;2023-09-19T03:46:02;1.50;;;0.90;;
3757;SDS011;1894;51.038;13.692;2023-09-19T03:48:35;2.87;;;1.30;;
3757;SDS011;1894;51.038;13.692;2023-09-19T03:51:02;5.17;;;1.40;;
3757;SDS011;1894;51.038;13.692;2023-09-19T03:53:30;3.77;;;1.10;;
3757;SDS011;1894;51.038;13.692;2023-09-19T03:55:58;1.57;;;1.10;;
3757;SDS011;1894;51.038;13.692;2023-09-19T03:58:28;1.63;;;0.87;;
3757;SDS011;1894;51.038;13.692;2023-09-19T04:00:56;7.37;;;1.13;;
3757;SDS011;1894;51.038;13.692;2023-09-19T04:03:26;4.10;;;1.27;;
3757;SDS011;1894;51.038;13.692;2023-09-19T04:06:02;1.90;;;1.00;;
3757;SDS011;1894;51.038;13.692;2023-09-19T04:08:29;4.03;;;1.30;;
3757;SDS011;1894;51.038;13.692;2023-09-19T04:10:56;15.03;;;1.30;;
3757;SDS011;1894;51.038;13.692;2023-09-19T04:13:23;1.10;;;0.90;;
3757;SDS011;1894;51.038;13.692;2023-09-19T04:15:52;4.80;;;1.10;;
3757;SDS011;1894;51.038;13.692;2023-09-19T04:18:19;1.10;;;1.00;;
3757;SDS011;1894;51.038;13.692;2023-09-19T04:20:48;1.40;;;1.13;;
3757;SDS011;1894;51.038;13.692;2023-09-19T04:23:18;8.80;;;1.00;;
3757;SDS011;1894;51.038;13.692;2023-09-19T04:25:49;1.70;;;1.03;;
3757;SDS011;1894;51.038;13.692;2023-09-19T04:28:17;6.30;;;1.10;;
3757;SDS011;1894;51.038;13.692;2023-09-19T04:30:44;2.80;;;1.27;;
3757;SDS011;1894;51.038;13.692;2023-09-19T04:33:11;2.90;;;1.20;;
3757;SDS011;1894;51.038;13.692;2023-09-19T04:35:41;2.50;;;1.30;;
3757;SDS011;1894;51.038;13.692;2023-09-19T04:38:11;1.63;;;0.97;;
3757;SDS011;1894;51.038;13.692;2023-09-19T04:40:38;1.50;;;1.10;;
3757;SDS011;1894;51.038;13.692;2023-09-19T04:43:06;1.57;;;1.13;;
3757;SDS011;1894;51.038;13.692;2023-09-19T04:45:34;1.37;;;0.90;;
3757;SDS011;1894;51.038;13.692;2023-09-19T04:48:01;2.60;;;0.93;;
3757;SDS011;1894;51.038;13.692;2023-09-19T04:50:29;2.30;;;1.10;;
3757;SDS011;1894;51.038;13.692;2023-09-19T04:52:56;1.93;;;1.10;;
3757;SDS011;1894;51.038;13.692;2023-09-19T04:55:23;3.33;;;1.67;;
3757;SDS011;1894;51.038;13.692;2023-09-19T04:58:03;1.83;;;1.10;;
3757;SDS011;1894;51.038;13.692;2023-09-19T05:00:31;3.23;;;0.90;;
3757;SDS011;1894;51.038;13.692;2023-09-19T05:03:01;2.53;;;1.00;;
3757;SDS011;1894;51.038;13.692;2023-09-19T05:05:31;8.10;;;1.40;;
3757;SDS011;1894;51.038;13.692;2023-09-19T05:07:58;2.10;;;1.60;;
3757;SDS011;1894;51.038;13.692;2023-09-19T05:10:32;5.33;;;1.20;;
3757;SDS011;1894;51.038;13.692;2023-09-19T05:12:59;1.83;;;1.00;;
3757;SDS011;1894;51.038;13.692;2023-09-19T05:15:27;2.27;;;0.90;;
3757;SDS011;1894;51.038;13.692;2023-09-19T05:17:54;1.83;;;1.20;;
3757;SDS011;1894;51.038;13.692;2023-09-19T05:20:24;4.77;;;1.43;;
3757;SDS011;1894;51.038;13.692;2023-09-19T05:23:03;1.40;;;1.10;;
3757;SDS011;1894;51.038;13.692;2023-09-19T05:25:35;1.53;;;1.13;;
3757;SDS011;1894;51.038;13.692;2023-09-19T05:28:04;1.60;;;1.07;;
3757;SDS011;1894;51.038;13.692;2023-09-19T05:30:32;3.50;;;1.20;;
3757;SDS011;1894;51.038;13.692;2023-09-19T05:33:02;2.50;;;1.60;;
3757;SDS011;1894;51.038;13.692;2023-09-19T05:35:31;3.63;;;1.17;;
3757;SDS011;1894;51.038;13.692;2023-09-19T05:37:59;2.13;;;1.23;;
3757;SDS011;1894;51.038;13.692;2023-09-19T05:40:27;2.60;;;1.30;;
3757;SDS011;1894;51.038;13.692;2023-09-19T05:42:54;2.83;;;1.00;;
3757;SDS011;1894;51.038;13.692;2023-09-19T05:45:21;2.67;;;1.00;;
3757;SDS011;1894;51.038;13.692;2023-09-19T05:47:49;1.50;;;1.30;;
3757;SDS011;1894;51.038;13.692;2023-09-19T05:50:22;1.40;;;1.10;;
3757;SDS011;1894;51.038;13.692;2023-09-19T05:52:51;2.73;;;1.07;;
3757;SDS011;1894;51.038;13.692;2023-09-19T05:55:19;2.60;;;0.90;;
3757;SDS011;1894;51.038;13.692;2023-09-19T05:57:51;1.13;;;1.03;;
3757;SDS011;1894;51.038;13.692;2023-09-19T06:00:19;2.17;;;0.90;;
3757;SDS011;1894;51.038;13.692;2023-09-19T06:02:54;3.33;;;1.30;;
3757;SDS011;1894;51.038;13.692;2023-09-19T06:05:24;4.40;;;1.10;;
3757;SDS011;1894;51.038;13.692;2023-09-19T06:07:53;1.30;;;1.00;;
3757;SDS011;1894;51.038;13.692;2023-09-19T06:10:21;1.83;;;1.07;;
3757;SDS011;1894;51.038;13.692;2023-09-19T06:12:49;1.30;;;0.93;;
3757;SDS011;1894;51.038;13.692;2023-09-19T06:15:16;4.83;;;1.20;;
3757;SDS011;1894;51.038;13.692;2023-09-19T06:17:50;2.07;;;1.27;;
3757;SDS011;1894;51.038;13.692;2023-09-19T06:20:25;1.20;;;1.00;;
3757;SDS011;1894;51.038;13.692;2023-09-19T06:22:53;2.70;;;1.00;;
3757;SDS011;1894;51.038;13.692;2023-09-19T06:25:20;1.60;;;1.00;;
3757;SDS011;1894;51.038;13.692;2023-09-19T06:27:50;1.83;;;1.00;;
3757;SDS011;1894;51.038;13.692;2023-09-19T06:30:22;5.70;;;1.10;;
3757;SDS011;1894;51.038;13.692;2023-09-19T06:32:59;3.03;;;1.50;;
3757;SDS011;1894;51.038;13.692;2023-09-19T06:35:27;5.57;;;1.03;;
3757;SDS011;1894;51.038;13.692;2023-09-19T06:38:02;2.47;;;1.23;;
3757;SDS011;1894;51.038;13.692;2023-09-19T06:40:30;4.27;;;1.33;;
3757;SDS011;1894;51.038;13.692;2023-09-19T06:42:58;1.50;;;1.10;;
3757;SDS011;1894;51.038;13.692;2023-09-19T06:45:25;1.30;;;1.20;;
3757;SDS011;1894;51.038;13.692;2023-09-19T06:47:54;2.37;;;1.03;;
3757;SDS011;1894;51.038;13.692;2023-09-19T06:50:25;6.23;;;1.33;;
3757;SDS011;1894;51.038;13.692;2023-09-19T06:52:54;4.33;;;1.00;;
3757;SDS011;1894;51.038;13.692;2023-09-19T06:55:24;3.97;;;1.30;;
3757;SDS011;1894;51.038;13.692;2023-09-19T06:57:55;2.33;;;1.00;;
3757;SDS011;1894;51.038;13.692;2023-09-19T07:00:23;4.50;;;1.40;;
3757;SDS011;1894;51.038;13.692;2023-09-19T07:02:54;1.20;;;1.10;;
3757;SDS011;1894;51.038;13.692;2023-09-19T07:05:27;2.10;;;1.13;;
3757;SDS011;1894;51.038;13.692;2023-09-19T07:07:55;3.77;;;1.20;;
3757;SDS011;1894;51.038;13.692;2023-09-19T07:10:25;1.20;;;0.90;;
3757;SDS011;1894;51.038;13.692;2023-09-19T07:15:29;1.30;;;1.20;;
3757;SDS011;1894;51.038;13.692;2023-09-19T07:18:03;2.77;;;1.10;;
3757;SDS011;1894;51.038;13.692;2023-09-19T07:20:31;2.70;;;1.03;;
3757;SDS011;1894;51.038;13.692;2023-09-19T07:23:01;2.37;;;1.10;;
3757;SDS011;1894;51.038;13.692;2023-09-19T07:25:28;3.97;;;1.30;;
3757;SDS011;1894;51.038;13.692;2023-09-19T07:28:00;5.93;;;1.23;;
3757;SDS011;1894;51.038;13.692;2023-09-19T07:30:27;2.30;;;1.07;;
3757;SDS011;1894;51.038;13.692;2023-09-19T07:32:55;5.53;;;1.00;;
3757;SDS011;1894;51.038;13.692;2023-09-19T07:35:23;1.80;;;1.30;;
3757;SDS011;1894;51.038;13.692;2023-09-19T07:37:50;2.23;;;0.80;;
3757;SDS011;1894;51.038;13.692;2023-09-19T07:40:23;1.20;;;0.87;;
3757;SDS011;1894;51.038;13.692;2023-09-19T07:42:51;1.33;;;1.13;;
3757;SDS011;1894;51.038;13.692;2023-09-19T07:45:18;2.47;;;0.80;;
3757;SDS011;1894;51.038;13.692;2023-09-19T07:47:49;9.00;;;0.90;;
3757;SDS011;1894;51.038;13.692;2023-09-19T07:50:18;1.10;;;0.90;;
3757;SDS011;1894;51.038;13.692;2023-09-19T07:52:47;6.20;;;1.10;;
3757;SDS011;1894;51.038;13.692;2023-09-19T07:55:20;3.17;;;1.10;;
3757;SDS011;1894;51.038;13.692;2023-09-19T07:57:54;3.43;;;1.10;;
3757;SDS011;1894;51.038;13.692;2023-09-19T08:00:21;1.73;;;1.00;;
3757;SDS011;1894;51.038;13.692;2023-09-19T08:02:48;2.30;;;1.17;;
3757;SDS011;1894;51.038;13.692;2023-09-19T08:05:26;1.17;;;1.00;;
3757;SDS011;1894;51.038;13.692;2023-09-19T08:07:54;5.40;;;0.90;;
3757;SDS011;1894;51.038;13.692;2023-09-19T08:10:23;1.00;;;0.80;;
3757;SDS011;1894;51.038;13.692;2023-09-19T08:12:54;3.03;;;0.70;;
3757;SDS011;1894;51.038;13.692;2023-09-19T08:15:24;1.17;;;0.87;;
3757;SDS011;1894;51.038;13.692;2023-09-19T08:17:51;2.17;;;1.10;;
3757;SDS011;1894;51.038;13.692;2023-09-19T08:20:19;2.77;;;0.87;;
3757;SDS011;1894;51.038;13.692;2023-09-19T08:22:47;4.23;;;1.00;;
3757;SDS011;1894;51.038;13.692;2023-09-19T08:25:19;3.07;;;0.80;;
3757;SDS011;1894;51.038;13.692;2023-09-19T08:27:47;3.23;;;0.80;;
3757;SDS011;1894;51.038;13.692;2023-09-19T08:30:17;1.40;;;0.80;;
3757;SDS011;1894;51.038;13.692;2023-09-19T08:32:51;2.33;;;1.10;;
3757;SDS011;1894;51.038;13.692;2023-09-19T08:35:25;5.13;;;1.20;;
3757;SDS011;1894;51.038;13.692;2023-09-19T08:37:54;2.50;;;0.83;;
3757;SDS011;1894;51.038;13.692;2023-09-19T08:40:22;2.70;;;0.87;;
3757;SDS011;1894;51.038;13.692;2023-09-19T08:42:55;1.40;;;1.30;;
3757;SDS011;1894;51.038;13.692;2023-09-19T08:45:23;3.87;;;0.93;;
3757;SDS011;1894;51.038;13.692;2023-09-19T08:50:33;2.50;;;1.00;;
3757;SDS011;1894;51.038;13.692;2023-09-19T08:53:52;6.30;;;1.00;;
3757;SDS011;1894;51.038;13.692;2023-09-19T08:56:31;5.90;;;0.90;;
3757;SDS011;1894;51.038;13.692;2023-09-19T08:59:02;1.93;;;0.93;;
3757;SDS011;1894;51.038;13.692;2023-09-19T09:01:39;7.63;;;2.60;;
3757;SDS011;1894;51.038;13.692;2023-09-19T09:04:08;3.67;;;1.17;;
3757;SDS011;1894;51.038;13.692;2023-09-19T09:06:39;4.00;;;1.30;;
3757;SDS011;1894;51.038;13.692;2023-09-19T09:09:10;2.13;;;1.00;;
3757;SDS011;1894;51.038;13.692;2023-09-19T09:11:37;1.73;;;1.00;;
3757;SDS011;1894;51.038;13.692;2023-09-19T09:14:06;8.00;;;1.37;;
3757;SDS011;1894;51.038;13.692;2023-09-19T09:16:34;6.30;;;2.70;;
3757;SDS011;1894;51.038;13.692;2023-09-19T09:19:02;4.50;;;1.77;;
3757;SDS011;1894;51.038;13.692;2023-09-19T09:21:29;3.33;;;1.10;;
3757;SDS011;1894;51.038;13.692;2023-09-19T09:23:56;2.83;;;1.10;;
3757;SDS011;1894;51.038;13.692;2023-09-19T09:26:40;2.50;;;1.47;;
3757;SDS011;1894;51.038;13.692;2023-09-19T09:29:11;3.17;;;1.00;;
3757;SDS011;1894;51.038;13.692;2023-09-19T09:31:41;2.50;;;0.90;;
3757;SDS011;1894;51.038;13.692;2023-09-19T09:34:09;1.97;;;1.00;;
3757;SDS011;1894;51.038;13.692;2023-09-19T09:36:40;1.70;;;1.00;;
3757;SDS011;1894;51.038;13.692;2023-09-19T09:39:08;0.97;;;0.70;;
3757;SDS011;1894;51.038;13.692;2023-09-19T09:41:51;2.20;;;0.80;;
3757;SDS011;1894;51.038;13.692;2023-09-19T09:44:18;2.20;;;0.97;;
3757;SDS011;1894;51.038;13.692;2023-09-19T09:46:46;1.07;;;0.83;;
3757;SDS011;1894;51.038;13.692;2023-09-19T09:49:25;4.10;;;0.90;;
3757;SDS011;1894;51.038;13.692;2023-09-19T09:52:04;3.27;;;0.90;;
3757;SDS011;1894;51.038;13.692;2023-09-19T09:54:59;6.20;;;0.93;;
3757;SDS011;1894;51.038;13.692;2023-09-19T09:57:32;1.20;;;1.03;;
3757;SDS011;1894;51.038;13.692;2023-09-19T10:00:00;1.20;;;0.80;;
3757;SDS011;1894;51.038;13.692;2023-09-19T10:02:38;1.20;;;0.80;;
3757;SDS011;1894;51.038;13.692;2023-09-19T10:05:19;1.93;;;0.80;;
3757;SDS011;1894;51.038;13.692;2023-09-19T10:07:48;1.73;;;0.83;;
3757;SDS011;1894;51.038;13.692;2023-09-19T10:13:09;1.30;;;0.90;;
3757;SDS011;1894;51.038;13.692;2023-09-19T10:15:42;1.17;;;0.90;;
3757;SDS011;1894;51.038;13.692;2023-09-19T10:18:19;1.53;;;0.80;;
3757;SDS011;1894;51.038;13.692;2023-09-19T10:20:47;1.40;;;0.90;;
3757;SDS011;1894;51.038;13.692;2023-09-19T10:23:17;3.73;;;0.80;;
3757;SDS011;1894;51.038;13.692;2023-09-19T10:25:50;2.10;;;1.00;;
3757;SDS011;1894;51.038;13.692;2023-09-19T10:28:19;1.40;;;0.90;;
3757;SDS011;1894;51.038;13.692;2023-09-19T10:30:51;3.50;;;1.20;;
3757;SDS011;1894;51.038;13.692;2023-09-19T10:33:24;1.93;;;0.70;;
3757;SDS011;1894;51.038;13.692;2023-09-19T10:35:53;3.07;;;0.87;;
3757;SDS011;1894;51.038;13.692;2023-09-19T10:38:23;1.10;;;0.80;;
3757;SDS011;1894;51.038;13.692;2023-09-19T10:40:53;1.23;;;0.77;;
3757;SDS011;1894;51.038;13.692;2023-09-19T10:43:30;2.30;;;0.90;;
3757;SDS011;1894;51.038;13.692;2023-09-19T10:46:03;3.57;;;0.90;;
3757;SDS011;1894;51.038;13.692;2023-09-19T10:48:37;1.40;;;1.00;;
3757;SDS011;1894;51.038;13.692;2023-09-19T10:51:14;1.53;;;0.80;;
3757;SDS011;1894;51.038;13.692;2023-09-19T10:53:54;1.80;;;1.00;;
3757;SDS011;1894;51.038;13.692;2023-09-19T10:56:47;1.53;;;0.80;;
3757;SDS011;1894;51.038;13.692;2023-09-19T10:59:20;1.00;;;0.80;;
3757;SDS011;1894;51.038;13.692;2023-09-19T11:01:49;10.23;;;1.70;;
3757;SDS011;1894;51.038;13.692;2023-09-19T11:04:35;4.83;;;1.53;;
3757;SDS011;1894;51.038;13.692;2023-09-19T11:09:56;1.40;;;1.03;;
3757;SDS011;1894;51.038;13.692;2023-09-19T11:26:51;3.30;;;1.10;;
3757;SDS011;1894;51.038;13.692;2023-09-19T11:29:36;2.40;;;1.13;;
3757;SDS011;1894;51.038;13.692;2023-09-19T11:32:04;1.83;;;1.03;;
3757;SDS011;1894;51.038;13.692;2023-09-19T11:37:11;1.40;;;1.30;;
3757;SDS011;1894;51.038;13.692;2023-09-19T11:40:09;1.33;;;1.23;;
3757;SDS011;1894;51.038;13.692;2023-09-19T11:42:44;2.70;;;1.33;;
3757;SDS011;1894;51.038;13.692;2023-09-19T11:48:25;2.90;;;1.30;;
3757;SDS011;1894;51.038;13.692;2023-09-19T11:50:53;2.90;;;1.20;;
3757;SDS011;1894;51.038;13.692;2023-09-19T11:53:23;1.60;;;1.17;;
3757;SDS011;1894;51.038;13.692;2023-09-19T11:55:58;3.03;;;0.97;;
3757;SDS011;1894;51.038;13.692;2023-09-19T11:58:27;2.13;;;1.20;;
3757;SDS011;1894;51.038;13.692;2023-09-19T12:00:56;5.00;;;1.27;;
3757;SDS011;1894;51.038;13.692;2023-09-19T12:03:29;2.17;;;0.97;;
3757;SDS011;1894;51.038;13.692;2023-09-19T12:05:58;2.17;;;1.13;;
3757;SDS011;1894;51.038;13.692;2023-09-19T12:08:28;3.20;;;1.37;;
3757;SDS011;1894;51.038;13.692;2023-09-19T12:10:56;2.50;;;0.90;;
3757;SDS011;1894;51.038;13.692;2023-09-19T12:13:24;6.20;;;0.90;;
3757;SDS011;1894;51.038;13.692;2023-09-19T12:15:53;3.00;;;1.17;;
3757;SDS011;1894;51.038;13.692;2023-09-19T12:18:29;2.70;;;1.10;;
3757;SDS011;1894;51.038;13.692;2023-09-19T12:20:57;1.70;;;1.00;;
3757;SDS011;1894;51.038;13.692;2023-09-19T12:23:25;1.60;;;1.07;;
3757;SDS011;1894;51.038;13.692;2023-09-19T12:25:54;1.00;;;0.90;;
3757;SDS011;1894;51.038;13.692;2023-09-19T12:28:27;6.17;;;1.97;;
3757;SDS011;1894;51.038;13.692;2023-09-19T12:31:07;3.67;;;1.20;;
3757;SDS011;1894;51.038;13.692;2023-09-19T12:33:35;3.33;;;1.07;;
3757;SDS011;1894;51.038;13.692;2023-09-19T12:36:19;3.10;;;1.20;;
3757;SDS011;1894;51.038;13.692;2023-09-19T12:38:58;3.43;;;1.23;;
3757;SDS011;1894;51.038;13.692;2023-09-19T12:41:25;3.03;;;1.30;;
3757;SDS011;1894;51.038;13.692;2023-09-19T12:43:53;2.63;;;1.10;;
3757;SDS011;1894;51.038;13.692;2023-09-19T12:46:21;3.83;;;1.10;;
3757;SDS011;1894;51.038;13.692;2023-09-19T12:51:46;2.83;;;1.20;;
3757;SDS011;1894;51.038;13.692;2023-09-19T12:54:14;1.83;;;1.00;;
3757;SDS011;1894;51.038;13.692;2023-09-19T12:56:44;2.20;;;1.33;;
3757;SDS011;1894;51.038;13.692;2023-09-19T12:59:14;2.17;;;1.00;;
3757;SDS011;1894;51.038;13.692;2023-09-19T13:01:42;5.07;;;0.97;;
3757;SDS011;1894;51.038;13.692;2023-09-19T13:04:21;1.83;;;0.90;;
3757;SDS011;1894;51.038;13.692;2023-09-19T13:06:56;2.33;;;0.90;;
3757;SDS011;1894;51.038;13.692;2023-09-19T13:09:28;1.20;;;1.00;;
3757;SDS011;1894;51.038;13.692;2023-09-19T13:12:01;3.13;;;0.80;;
3757;SDS011;1894;51.038;13.692;2023-09-19T13:14:29;2.07;;;1.20;;
3757;SDS011;1894;51.038;13.692;2023-09-19T13:17:07;1.50;;;1.00;;
3757;SDS011;1894;51.038;13.692;2023-09-19T13:19:46;2.17;;;0.77;;
3757;SDS011;1894;51.038;13.692;2023-09-19T13:25:10;1.63;;;1.53;;
3757;SDS011;1894;51.038;13.692;2023-09-19T13:27:43;1.63;;;0.90;;
3757;SDS011;1894;51.038;13.692;2023-09-19T13:30:24;1.20;;;0.90;;
3757;SDS011;1894;51.038;13.692;2023-09-19T13:33:04;1.10;;;1.00;;
3757;SDS011;1894;51.038;13.692;2023-09-19T13:35:37;2.70;;;1.20;;
3757;SDS011;1894;51.038;13.692;2023-09-19T13:38:07;2.70;;;1.07;;
3757;SDS011;1894;51.038;13.692;2023-09-19T13:40:38;2.63;;;1.00;;
3757;SDS011;1894;51.038;13.692;2023-09-19T13:43:09;1.47;;;0.90;;
3757;SDS011;1894;51.038;13.692;2023-09-19T13:45:38;1.47;;;1.10;;
3757;SDS011;1894;51.038;13.692;2023-09-19T13:48:08;1.53;;;1.10;;
3757;SDS011;1894;51.038;13.692;2023-09-19T13:50:38;1.27;;;1.00;;
3757;SDS011;1894;51.038;13.692;2023-09-19T13:53:09;2.30;;;1.00;;
3757;SDS011;1894;51.038;13.692;2023-09-19T13:55:36;2.90;;;1.17;;
3757;SDS011;1894;51.038;13.692;2023-09-19T13:58:04;4.13;;;1.73;;
3757;SDS011;1894;51.038;13.692;2023-09-19T14:00:33;1.90;;;1.33;;
3757;SDS011;1894;51.038;13.692;2023-09-19T14:03:03;2.30;;;1.40;;
3757;SDS011;1894;51.038;13.692;2023-09-19T14:05:31;1.93;;;1.40;;
3757;SDS011;1894;51.038;13.692;2023-09-19T14:07:59;1.40;;;1.20;;
3757;SDS011;1894;51.038;13.692;2023-09-19T14:10:26;1.00;;;0.90;;
3757;SDS011;1894;51.038;13.692;2023-09-19T14:12:54;2.17;;;1.07;;
3757;SDS011;1894;51.038;13.692;2023-09-19T14:15:21;1.97;;;1.23;;
3757;SDS011;1894;51.038;13.692;2023-09-19T14:17:58;1.00;;;0.90;;
3757;SDS011;1894;51.038;13.692;2023-09-19T14:20:27;2.10;;;1.63;;
3757;SDS011;1894;51.038;13.692;2023-09-19T14:22:56;4.77;;;1.70;;
3757;SDS011;1894;51.038;13.692;2023-09-19T14:25:25;1.67;;;1.30;;
3757;SDS011;1894;51.038;13.692;2023-09-19T14:27:52;2.07;;;1.03;;
3757;SDS011;1894;51.038;13.692;2023-09-19T14:30:19;2.97;;;1.37;;
3757;SDS011;1894;51.038;13.692;2023-09-19T14:32:47;1.63;;;1.00;;
3757;SDS011;1894;51.038;13.692;2023-09-19T14:35:14;1.87;;;1.50;;
3757;SDS011;1894;51.038;13.692;2023-09-19T14:37:43;3.93;;;1.80;;
3757;SDS011;1894;51.038;13.692;2023-09-19T14:40:12;2.17;;;1.33;;
3757;SDS011;1894;51.038;13.692;2023-09-19T14:42:42;1.73;;;1.23;;
3757;SDS011;1894;51.038;13.692;2023-09-19T14:45:12;1.87;;;1.37;;
3757;SDS011;1894;51.038;13.692;2023-09-19T14:47:43;2.03;;;1.10;;
3757;SDS011;1894;51.038;13.692;2023-09-19T14:50:12;1.50;;;1.40;;
3757;SDS011;1894;51.038;13.692;2023-09-19T14:52:41;4.17;;;1.63;;
3757;SDS011;1894;51.038;13.692;2023-09-19T14:55:09;17.67;;;2.20;;
3757;SDS011;1894;51.038;13.692;2023-09-19T14:57:41;1.57;;;1.47;;
3757;SDS011;1894;51.038;13.692;2023-09-19T15:00:11;2.10;;;1.70;;
3757;SDS011;1894;51.038;13.692;2023-09-19T15:02:40;1.43;;;1.27;;
3757;SDS011;1894;51.038;13.692;2023-09-19T15:05:08;1.67;;;1.40;;
3757;SDS011;1894;51.038;13.692;2023-09-19T15:07:35;4.60;;;1.30;;
3757;SDS011;1894;51.038;13.692;2023-09-19T15:10:04;2.70;;;1.43;;
3757;SDS011;1894;51.038;13.692;2023-09-19T15:12:36;2.83;;;1.50;;
3757;SDS011;1894;51.038;13.692;2023-09-19T15:15:04;3.40;;;1.40;;
3757;SDS011;1894;51.038;13.692;2023-09-19T15:17:36;3.40;;;1.50;;
3757;SDS011;1894;51.038;13.692;2023-09-19T15:20:04;1.60;;;1.17;;
3757;SDS011;1894;51.038;13.692;2023-09-19T15:22:35;3.57;;;2.07;;
3757;SDS011;1894;51.038;13.692;2023-09-19T15:25:03;4.23;;;1.60;;
3757;SDS011;1894;51.038;13.692;2023-09-19T15:27:31;4.50;;;1.70;;
3757;SDS011;1894;51.038;13.692;2023-09-19T15:29:59;3.67;;;1.53;;
3757;SDS011;1894;51.038;13.692;2023-09-19T15:32:29;1.50;;;1.33;;
3757;SDS011;1894;51.038;13.692;2023-09-19T15:34:56;3.47;;;1.60;;
3757;SDS011;1894;51.038;13.692;2023-09-19T15:37:23;1.40;;;1.30;;
3757;SDS011;1894;51.038;13.692;2023-09-19T15:39:52;1.63;;;1.40;;
3757;SDS011;1894;51.038;13.692;2023-09-19T15:42:19;2.27;;;2.10;;
3757;SDS011;1894;51.038;13.692;2023-09-19T15:44:47;1.83;;;1.20;;
3757;SDS011;1894;51.038;13.692;2023-09-19T15:47:16;7.13;;;1.37;;
3757;SDS011;1894;51.038;13.692;2023-09-19T15:49:44;2.10;;;1.60;;
3757;SDS011;1894;51.038;13.692;2023-09-19T15:52:12;2.60;;;1.67;;
3757;SDS011;1894;51.038;13.692;2023-09-19T15:54:39;5.90;;;1.97;;
3757;SDS011;1894;51.038;13.692;2023-09-19T15:57:11;2.80;;;1.80;;
3757;SDS011;1894;51.038;13.692;2023-09-19T15:59:40;2.90;;;1.70;;
3757;SDS011;1894;51.038;13.692;2023-09-19T16:02:07;2.67;;;1.90;;
3757;SDS011;1894;51.038;13.692;2023-09-19T16:04:35;4.13;;;2.03;;
3757;SDS011;1894;51.038;13.692;2023-09-19T16:07:04;1.83;;;1.43;;
3757;SDS011;1894;51.038;13.692;2023-09-19T16:09:33;2.50;;;2.30;;
3757;SDS011;1894;51.038;13.692;2023-09-19T16:12:01;2.60;;;1.87;;
3757;SDS011;1894;51.038;13.692;2023-09-19T16:14:29;1.97;;;1.63;;